Time;durP1;ratioP1;P1;durP2;ratioP2;P2;SDS_P1;SDS_P2;PMS_P1;PMS_P2;Temp;Humidity;BMP_temperature;BMP_pressure;BME280_temperature;BME280_humidity;BME280_pressure;Samples;Min_cycle;Max_cycle;Signal;HPM_P1;HPM_P2
2023/10/11 00:00:44;;;;;;;4.50;2.07;;;;;;;14.62;76.51;97847.78;4990856;28;20321;-77
2023/10/11 00:03:35;;;;;;;3.50;2.27;;;;;;;14.61;76.35;97851.28;4990661;28;20199;-74
2023/10/11 00:06:05;;;;;;;4.93;1.87;;;;;;;14.77;76.10;97846.19;4991029;28;20192;-72
2023/10/11 00:08:40;;;;;;;3.53;2.00;;;;;;;14.85;75.44;97838.81;4990656;28;20195;-71
2023/10/11 00:11:07;;;;;;;2.50;1.93;;;;;;;14.93;75.72;97847.09;4991058;28;20219;-74
2023/10/11 00:13:36;;;;;;;5.77;1.90;;;;;;;14.90;75.24;97851.63;4990601;28;20234;-73
2023/10/11 00:16:09;;;;;;;4.43;2.20;;;;;;;14.81;74.85;97871.19;4989377;28;20684;-72
2023/10/11 00:18:41;;;;;;;3.40;1.90;;;;;;;14.76;74.61;97864.47;4990617;28;20191;-71
2023/10/11 00:21:12;;;;;;;5.37;2.00;;;;;;;14.67;74.85;97861.41;4990433;28;20547;-71
2023/10/11 00:23:42;;;;;;;3.83;1.90;;;;;;;14.65;76.24;97854.59;4990732;28;20190;-74
2023/10/11 00:26:10;;;;;;;5.07;2.10;;;;;;;14.64;75.63;97845.94;4990252;28;20188;-73
2023/10/11 00:28:43;;;;;;;3.70;2.03;;;;;;;14.50;76.51;97853.59;4990291;28;20184;-71
2023/10/11 00:31:16;;;;;;;4.20;2.03;;;;;;;14.53;76.56;97858.63;4990187;28;20298;-73
2023/10/11 00:33:46;;;;;;;2.77;1.80;;;;;;;14.58;76.29;97834.97;4990023;28;20226;-72
2023/10/11 00:36:16;;;;;;;2.97;2.07;;;;;;;14.47;76.03;97853.72;4990076;28;20191;-72
2023/10/11 00:38:48;;;;;;;4.60;1.80;;;;;;;14.53;76.07;97853.41;4990139;28;21129;-72
2023/10/11 00:41:19;;;;;;;4.03;2.20;;;;;;;14.53;76.14;97835.19;4990336;28;20196;-72
2023/10/11 00:43:52;;;;;;;3.83;1.80;;;;;;;14.33;75.38;97843.13;4989960;28;20288;-74
2023/10/11 00:49:17;;;;;;;4.70;2.20;;;;;;;14.28;76.05;97846.84;4990277;28;20255;-74
2023/10/11 00:51:49;;;;;;;3.17;2.10;;;;;;;14.10;76.39;97848.53;4989955;28;20200;-73
2023/10/11 00:54:17;;;;;;;2.73;2.00;;;;;;;14.20;76.22;97855.00;4988653;28;20720;-72
2023/10/11 00:56:48;;;;;;;6.10;2.17;;;;;;;14.22;75.37;97858.38;4989880;28;20195;-73
2023/10/11 00:59:20;;;;;;;2.97;1.73;;;;;;;14.02;74.34;97849.81;4988428;28;20200;-73
2023/10/11 01:01:51;;;;;;;3.57;1.93;;;;;;;13.43;75.52;97850.78;4989986;28;20580;-73
2023/10/11 01:04:19;;;;;;;4.97;1.90;;;;;;;13.48;75.39;97858.34;4989838;28;20206;-74
2023/10/11 01:06:49;;;;;;;3.40;1.83;;;;;;;13.71;74.76;97860.78;4989881;28;20625;-72
2023/10/11 01:09:27;;;;;;;2.40;1.90;;;;;;;13.91;75.11;97865.91;4989668;28;20221;-73
2023/10/11 01:11:55;;;;;;;4.33;2.10;;;;;;;14.03;73.88;97856.72;4989374;28;20603;-72
2023/10/11 01:14:23;;;;;;;4.47;3.17;;;;;;;14.12;74.63;97864.94;4989557;28;20283;-73
2023/10/11 01:16:55;;;;;;;2.27;1.80;;;;;;;14.17;74.43;97865.56;4989589;28;20258;-71
2023/10/11 01:19:25;;;;;;;2.97;1.90;;;;;;;14.38;74.14;97875.03;4988470;28;20190;-77
2023/10/11 01:21:58;;;;;;;4.87;3.17;;;;;;;14.20;75.27;97875.84;4988141;28;20827;-78
2023/10/11 01:24:26;;;;;;;9.10;4.97;;;;;;;14.05;76.12;97880.94;4989588;28;20217;-80
2023/10/11 01:26:56;;;;;;;5.70;3.60;;;;;;;14.23;74.75;97883.53;4989452;28;20949;-80
2023/10/11 01:29:24;;;;;;;3.17;2.33;;;;;;;14.11;75.71;97889.31;4989397;28;20707;-79
2023/10/11 01:31:51;;;;;;;3.13;1.93;;;;;;;14.20;75.78;97888.88;4987786;28;20195;-78
2023/10/11 01:34:18;;;;;;;3.90;2.13;;;;;;;14.22;75.05;97888.81;4989548;28;20250;-78
2023/10/11 01:36:45;;;;;;;10.40;4.87;;;;;;;14.12;75.91;97883.16;4988122;28;20207;-83
2023/10/11 01:39:13;;;;;;;4.67;3.30;;;;;;;14.21;75.45;97887.13;4987742;28;20686;-82
2023/10/11 01:41:42;;;;;;;3.00;2.07;;;;;;;14.33;75.13;97892.63;4989495;28;20616;-80
2023/10/11 01:44:11;;;;;;;8.73;2.20;;;;;;;14.32;75.57;97895.31;4988912;28;20266;-79
2023/10/11 01:46:40;;;;;;;3.37;1.97;;;;;;;14.26;75.69;97901.59;4986495;28;20283;-74
2023/10/11 01:49:10;;;;;;;6.83;3.37;;;;;;;14.21;76.03;97903.59;4988852;28;20286;-73
2023/10/11 01:51:40;;;;;;;2.87;2.57;;;;;;;14.31;75.17;97904.88;4988870;28;20326;-83
2023/10/11 01:54:09;;;;;;;5.13;2.27;;;;;;;14.06;76.34;97904.28;4988813;28;20322;-80
2023/10/11 01:56:38;;;;;;;3.30;2.20;;;;;;;14.14;76.41;97917.81;5001747;28;20222;-83
2023/10/11 01:59:07;;;;;;;3.00;2.10;;;;;;;14.04;76.79;97894.84;5007258;28;20197;-84
2023/10/11 02:01:41;;;;;;;3.03;2.03;;;;;;;14.22;76.41;97915.69;5006902;28;20202;-81
2023/10/11 02:04:20;;;;;;;3.07;1.80;;;;;;;14.26;76.70;97914.63;5008210;28;20187;-80
2023/10/11 02:06:48;;;;;;;4.10;2.13;;;;;;;14.20;76.40;97917.53;5006941;28;20226;-73
2023/10/11 02:09:21;;;;;;;5.80;2.20;;;;;;;14.17;77.11;97907.25;5008015;28;20281;-75
2023/10/11 02:11:54;;;;;;;3.13;2.23;;;;;;;14.28;76.69;97920.66;5007030;28;20195;-84
2023/10/11 02:14:28;;;;;;;3.10;2.33;;;;;;;14.24;76.89;97907.81;5006592;28;20208;-75
2023/10/11 02:16:59;;;;;;;4.20;2.10;;;;;;;14.27;77.34;97920.69;5007906;28;20482;-79
2023/10/11 02:19:29;;;;;;;3.27;2.43;;;;;;;14.17;78.08;97912.47;5007857;28;20199;-76
2023/10/11 02:21:56;;;;;;;6.30;2.53;;;;;;;14.26;78.10;97926.84;5007763;28;20663;-75
2023/10/11 02:24:25;;;;;;;4.27;2.50;;;;;;;14.20;77.74;97921.91;5006549;28;20185;-81
2023/10/11 02:26:55;;;;;;;2.37;2.17;;;;;;;13.99;79.22;97928.94;5007690;28;20202;-77
2023/10/11 02:29:25;;;;;;;3.93;2.47;;;;;;;13.83;79.05;97923.56;5006576;28;20179;-75
2023/10/11 02:31:55;;;;;;;3.70;2.60;;;;;;;13.77;79.52;97925.59;5007545;28;20206;-77
2023/10/11 02:34:23;;;;;;;4.17;2.27;;;;;;;13.88;78.91;97925.97;5007541;28;20221;-73
2023/10/11 02:37:02;;;;;;;6.23;2.60;;;;;;;13.83;78.31;97927.91;5007471;28;20716;-70
2023/10/11 02:39:32;;;;;;;2.60;2.10;;;;;;;13.70;78.83;97935.41;5007544;28;20213;-72
2023/10/11 02:42:05;;;;;;;3.73;2.90;;;;;;;13.53;79.44;97914.50;5006506;28;20193;-75
2023/10/11 02:44:39;;;;;;;3.07;2.30;;;;;;;13.67;79.49;97932.09;5006178;28;20587;-76
2023/10/11 02:47:10;;;;;;;3.90;2.37;;;;;;;13.88;77.99;97925.97;5006049;28;20212;-76
2023/10/11 02:49:38;;;;;;;4.67;3.13;;;;;;;14.01;78.10;97934.94;4989058;28;20223;-79
2023/10/11 02:52:06;;;;;;;3.03;2.57;;;;;;;13.89;77.60;97922.44;4989787;28;20215;-72
2023/10/11 02:54:42;;;;;;;5.73;2.67;;;;;;;14.05;77.13;97941.69;5007321;28;20226;-75
2023/10/11 02:57:20;;;;;;;2.80;2.47;;;;;;;14.19;76.91;97935.84;5006485;28;20636;-71
2023/10/11 02:59:50;;;;;;;3.00;2.50;;;;;;;14.03;77.13;97935.69;5006342;28;20241;-72
2023/10/11 03:02:21;;;;;;;2.83;2.40;;;;;;;14.09;76.72;97935.41;5006030;28;20255;-71
2023/10/11 03:04:51;;;;;;;2.33;2.13;;;;;;;14.17;75.93;97943.72;5006045;28;20186;-71
2023/10/11 03:07:21;;;;;;;4.13;2.40;;;;;;;14.17;76.07;97941.13;5005904;28;20199;-71
2023/10/11 03:09:53;;;;;;;4.53;2.60;;;;;;;14.14;76.07;97943.84;5006142;28;20206;-71
2023/10/11 03:12:31;;;;;;;6.60;2.70;;;;;;;13.99;75.70;97934.16;5006681;28;20675;-71
2023/10/11 03:15:11;;;;;;;4.23;2.60;;;;;;;13.97;75.95;97933.38;5008740;28;20578;-71
2023/10/11 03:17:43;;;;;;;4.27;3.07;;;;;;;13.97;76.00;97941.19;4990586;28;20488;-83
2023/10/11 03:23:04;;;;;;;4.90;3.13;;;;;;;14.09;75.48;97940.63;4989810;28;20187;-83
2023/10/11 03:25:37;;;;;;;5.27;3.53;;;;;;;14.04;75.56;97941.72;4987867;28;20191;-80
2023/10/11 03:28:05;;;;;;;5.43;3.77;;;;;;;14.16;75.08;97949.84;4987619;28;20195;-83
2023/10/11 03:30:38;;;;;;;6.03;3.90;;;;;;;14.21;74.56;97947.03;4995869;28;20221;-79
2023/10/11 03:33:07;;;;;;;7.53;3.97;;;;;;;13.99;75.71;97941.97;5006788;28;20330;-84
2023/10/11 03:35:38;;;;;;;5.50;4.63;;;;;;;13.92;75.88;97950.09;5006798;28;20286;-83
2023/10/11 03:38:17;;;;;;;5.40;4.20;;;;;;;14.01;75.96;97944.50;5007093;28;20194;-83
2023/10/11 03:41:14;;;;;;;8.30;4.33;;;;;;;14.07;76.14;97954.63;5006981;28;20705;-85
2023/10/11 03:43:42;;;;;;;5.03;3.60;;;;;;;13.99;76.85;97954.13;5018637;28;20204;-84
2023/10/11 03:46:10;;;;;;;5.57;3.50;;;;;;;13.69;78.60;97949.34;4995661;28;20187;-78
2023/10/11 03:48:51;;;;;;;6.40;3.80;;;;;;;13.63;79.09;97957.44;5003554;28;20201;-75
2023/10/11 03:51:20;;;;;;;6.50;3.80;;;;;;;13.73;79.42;97960.47;4996209;28;20213;-84
2023/10/11 03:53:47;;;;;;;5.37;3.10;;;;;;;13.87;79.18;97960.72;4995690;28;20222;-84
2023/10/11 03:56:17;;;;;;;3.73;3.10;;;;;;;13.93;79.59;97955.22;4996172;28;20278;-72
2023/10/11 03:58:45;;;;;;;6.10;3.80;;;;;;;14.01;79.21;97952.31;5000545;28;20195;-78
2023/10/11 04:03:45;;;;;;;4.90;3.43;;;;;;;13.94;78.88;97962.16;5007314;28;20191;-85
2023/10/11 04:06:15;;;;;;;3.90;2.90;;;;;;;13.78;80.57;97951.56;5006300;28;20199;-74
2023/10/11 04:08:54;;;;;;;7.03;3.80;;;;;;;13.99;79.52;97941.97;5006605;28;20193;-75
2023/10/11 04:11:37;;;;;;;6.17;4.13;;;;;;;14.09;78.43;97951.06;5009705;28;20195;-78
2023/10/11 04:14:23;;;;;;;7.03;3.33;;;;;;;14.16;78.39;97951.59;5009935;28;20245;-82
2023/10/11 04:16:56;;;;;;;5.93;3.20;;;;;;;13.78;78.07;97935.09;5009944;28;20222;-78
2023/10/11 04:19:23;;;;;;;6.07;3.10;;;;;;;13.81;79.49;97951.41;5008331;28;20199;-81
2023/10/11 04:21:55;;;;;;;6.10;3.17;;;;;;;13.85;79.86;97962.53;5009880;28;20208;-78
2023/10/11 04:25:18;;;;;;;6.60;3.47;;;;;;;14.08;78.79;97949.34;5007285;28;20220;-77
2023/10/11 04:28:02;;;;;;;5.20;3.10;;;;;;;13.82;78.83;97960.09;5009392;28;20847;-72
2023/10/11 04:30:43;;;;;;;5.07;3.50;;;;;;;14.01;79.00;97970.53;5012151;28;20207;-74
2023/10/11 04:33:13;;;;;;;4.27;3.23;;;;;;;14.00;79.25;97961.88;5008725;28;20851;-77
2023/10/11 04:35:43;;;;;;;4.13;2.70;;;;;;;14.05;78.37;97965.13;5010014;28;20221;-80
2023/10/11 04:38:11;;;;;;;6.97;4.37;;;;;;;14.02;78.53;97961.78;5009945;28;20194;-80
2023/10/11 04:40:48;;;;;;;8.87;5.07;;;;;;;14.06;77.72;97948.56;5007338;28;20195;-82
2023/10/11 04:43:25;;;;;;;7.73;4.00;;;;;;;14.18;77.67;97966.25;5009471;28;20201;-72
2023/10/11 04:46:00;;;;;;;4.93;3.40;;;;;;;14.05;78.21;97979.91;5009085;28;20191;-75
2023/10/11 04:48:36;;;;;;;7.07;2.87;;;;;;;14.08;78.18;97980.59;5007683;28;20281;-72
2023/10/11 04:53:58;;;;;;;6.83;3.00;;;;;;;14.19;77.83;97980.97;5008904;28;20707;-76
2023/10/11 04:59:25;;;;;;;9.63;3.30;;;;;;;14.20;77.65;97987.88;5007649;28;20195;-73
2023/10/11 05:04:27;;;;;;;7.13;3.67;;;;;;;14.31;77.65;97987.41;5007381;28;20190;-72
2023/10/11 05:06:55;;;;;;;10.70;3.90;;;;;;;14.28;78.06;97974.50;5009158;28;20198;-75
2023/10/11 05:09:29;;;;;;;7.87;3.87;;;;;;;14.22;77.97;97988.63;5009128;28;20547;-75
2023/10/11 05:14:39;;;;;;;5.50;3.20;;;;;;;14.18;78.39;97987.09;5008164;28;20215;-74
2023/10/11 05:17:31;;;;;;;6.37;3.20;;;;;;;14.17;78.55;98001.03;5006939;28;20905;-73
2023/10/11 05:25:16;;;;;;;6.20;3.63;;;;;;;14.16;78.65;98009.75;5008487;28;20692;-73
2023/10/11 05:27:51;;;;;;;6.33;3.57;;;;;;;14.34;78.64;98006.34;5008424;28;20199;-73
2023/10/11 05:30:32;;;;;;;5.30;4.13;;;;;;;14.30;78.15;98007.41;5008367;28;20754;-72
2023/10/11 05:52:17;;;;;;;5.10;3.30;;;;;;;14.17;78.42;98021.88;4990453;28;21127;-72
2023/10/11 05:54:45;;;;;;;12.50;7.20;;;;;;;14.33;78.44;98038.56;5005925;28;20689;-72
2023/10/11 05:57:16;;;;;;;8.30;3.63;;;;;;;14.00;79.67;98029.59;5007877;28;20683;-73
2023/10/11 05:59:43;;;;;;;30.47;8.23;;;;;;;14.10;79.45;98015.25;4990298;28;20202;-74
2023/10/11 06:02:13;;;;;;;6.13;3.90;;;;;;;14.28;78.82;98037.91;5006205;28;20238;-77
2023/10/11 06:04:41;;;;;;;9.97;4.20;;;;;;;14.33;78.10;98043.75;5007488;28;20240;-75
2023/10/11 06:07:20;;;;;;;14.17;4.00;;;;;;;14.48;77.13;98024.00;5005768;28;20744;-72
2023/10/11 06:09:52;;;;;;;13.20;4.27;;;;;;;14.65;76.88;98055.34;5004299;28;20191;-82
2023/10/11 06:12:23;;;;;;;9.27;4.87;;;;;;;14.79;76.24;98054.72;4979535;28;20654;-70
2023/10/11 06:14:56;;;;;;;7.77;3.20;;;;;;;14.65;76.04;98040.53;4999812;28;20219;-72
2023/10/11 06:17:33;;;;;;;7.40;3.63;;;;;;;14.83;75.95;98054.50;4990011;28;20322;-72
2023/10/11 06:23:02;;;;;;;7.67;3.63;;;;;;;14.67;76.22;98038.69;4996435;28;20217;-74
2023/10/11 06:28:17;;;;;;;9.50;5.33;;;;;;;14.68;76.08;98026.53;4985301;28;20687;-75
2023/10/11 06:30:46;;;;;;;7.93;4.40;;;;;;;14.83;75.49;98019.75;4985796;28;20243;-76
2023/10/11 06:33:14;;;;;;;8.63;5.10;;;;;;;15.03;75.97;98054.41;4986421;28;20216;-81
2023/10/11 06:35:51;;;;;;;8.03;4.37;;;;;;;15.07;75.58;98055.09;4986218;28;20279;-72
2023/10/11 06:38:18;;;;;;;7.60;4.10;;;;;;;14.90;75.78;98055.06;4987131;28;20242;-72
2023/10/11 06:41:36;;;;;;;12.13;4.10;;;;;;;15.10;75.71;98068.00;4987090;28;20189;-77
2023/10/11 06:43:41;;;;;;;8.27;4.40;;;;;;;15.19;73.20;98064.94;4986838;28;20331;-72
2023/10/11 06:46:08;;;;;;;9.30;3.97;;;;;;;15.35;71.74;98073.75;4986851;28;20287;-72
2023/10/11 06:48:35;;;;;;;6.57;3.73;;;;;;;15.26;71.17;98074.19;4987052;28;20295;-81
2023/10/11 06:51:03;;;;;;;8.10;3.60;;;;;;;14.92;71.75;98050.63;4987054;28;20235;-74
2023/10/11 06:54:11;;;;;;;5.17;3.20;;;;;;;15.20;72.16;98064.03;4985635;28;20220;-82
2023/10/11 06:57:32;;;;;;;5.57;3.43;;;;;;;15.24;71.48;98070.81;4986648;28;20220;-81
2023/10/11 07:00:53;;;;;;;6.43;3.57;;;;;;;15.51;71.58;98092.16;4984209;28;20199;-80
2023/10/11 07:04:18;;;;;;;9.47;3.40;;;;;;;15.60;70.75;98084.72;4986553;28;20189;-74
2023/10/11 07:07:39;;;;;;;7.43;3.70;;;;;;;15.62;70.93;98097.72;4986600;28;20199;-82
2023/10/11 07:11:03;;;;;;;13.23;3.97;;;;;;;15.69;70.24;98099.09;4984533;28;20189;-81
2023/10/11 07:14:25;;;;;;;9.23;3.93;;;;;;;15.84;69.98;98101.81;4986568;28;20321;-84
2023/10/11 07:17:46;;;;;;;4.53;3.20;;;;;;;16.06;68.97;98093.72;4986383;28;20204;-74
2023/10/11 07:21:09;;;;;;;7.77;3.40;;;;;;;15.93;68.58;98093.50;4986359;28;20198;-73
2023/10/11 07:27:53;;;;;;;5.60;3.27;;;;;;;15.93;66.92;98093.50;4986222;28;20239;-72
2023/10/11 07:31:16;;;;;;;10.37;5.73;;;;;;;15.72;67.34;98105.03;4986206;28;20200;-72
2023/10/11 07:34:41;;;;;;;8.83;4.83;;;;;;;15.79;67.84;98095.94;4985758;28;20220;-71
2023/10/11 07:38:01;;;;;;;7.30;3.23;;;;;;;15.64;68.48;98112.34;4985875;28;20187;-70
2023/10/11 07:41:22;;;;;;;15.27;4.60;;;;;;;16.10;67.46;98103.94;4986373;28;20189;-77
2023/10/11 07:44:49;;;;;;;6.63;3.50;;;;;;;16.36;65.89;98097.38;4986167;28;20197;-72
2023/10/11 07:48:10;;;;;;;9.07;3.20;;;;;;;16.66;65.18;98103.66;4989774;28;20226;-74
2023/10/11 07:51:31;;;;;;;8.93;3.80;;;;;;;16.86;64.31;98098.19;4989551;28;20307;-71
2023/10/11 07:54:52;;;;;;;7.73;3.90;;;;;;;16.94;62.71;98108.22;4989458;28;20740;-71
2023/10/11 07:58:13;;;;;;;9.10;3.80;;;;;;;16.94;62.04;98096.00;4987592;28;20193;-72
2023/10/11 08:01:42;;;;;;;5.87;2.63;;;;;;;16.94;58.45;98111.69;4987226;28;20310;-72
2023/10/11 08:05:05;;;;;;;6.73;3.67;;;;;;;16.37;59.24;98108.66;4989873;28;20568;-72
2023/10/11 08:07:46;;;;;;;7.57;3.43;;;;;;;16.43;59.42;98114.44;4973432;28;20622;-73
2023/10/11 08:10:56;;;;;;;6.40;2.80;;;;;;;16.48;58.60;98112.44;4989755;28;20199;-72
2023/10/11 08:13:04;;;;;;;4.90;2.53;;;;;;;16.68;58.27;98114.03;4984955;28;20557;-75
2023/10/11 08:15:31;;;;;;;7.20;2.50;;;;;;;16.59;57.49;98111.91;4988042;28;20897;-77
2023/10/11 08:17:59;;;;;;;5.07;2.57;;;;;;;16.60;57.41;98117.06;4989912;28;20196;-83
2023/10/11 08:20:28;;;;;;;4.53;2.80;;;;;;;16.44;56.85;98120.50;4989883;28;20254;-82
2023/10/11 08:22:57;;;;;;;9.73;2.43;;;;;;;16.26;56.68;98127.50;4989413;28;20199;-78
2023/10/11 08:25:28;;;;;;;6.60;2.90;;;;;;;16.22;57.36;98121.59;4989194;28;20247;-75
2023/10/11 08:28:10;;;;;;;4.60;2.50;;;;;;;16.56;57.04;98127.75;4988121;28;20185;-76
2023/10/11 08:30:45;;;;;;;7.77;2.00;;;;;;;16.35;56.32;98134.06;4989530;28;20197;-77
2023/10/11 08:33:14;;;;;;;8.27;2.30;;;;;;;16.36;56.34;98123.53;4989374;28;20220;-80
2023/10/11 08:35:46;;;;;;;5.70;2.80;;;;;;;16.67;55.10;98128.03;4989654;28;20248;-77
2023/10/11 08:38:18;;;;;;;3.20;1.60;;;;;;;16.47;54.25;98130.78;4989134;28;20223;-83
2023/10/11 08:40:50;;;;;;;4.53;1.47;;;;;;;16.42;52.20;98138.91;4989094;28;20204;-78
2023/10/11 08:43:18;;;;;;;5.30;3.97;;;;;;;16.44;53.48;98138.81;4989089;28;20189;-85
2023/10/11 08:45:59;;;;;;;4.13;2.47;;;;;;;16.59;53.98;98131.03;4987915;28;20195;-85
2023/10/11 08:48:28;;;;;;;7.03;2.03;;;;;;;16.79;53.98;98132.63;4989137;28;20618;-84
2023/10/11 08:50:56;;;;;;;7.93;2.73;;;;;;;16.78;53.53;98123.06;4987952;28;20260;-84
2023/10/11 08:53:24;;;;;;;9.10;2.50;;;;;;;16.95;52.46;98131.72;4988682;28;20655;-85
2023/10/11 08:55:59;;;;;;;7.80;2.73;;;;;;;16.79;52.98;98116.94;4988759;28;20231;-76
2023/10/11 08:58:30;;;;;;;10.17;3.10;;;;;;;17.02;52.08;98129.63;4991504;28;20260;-82
2023/10/11 09:00:59;;;;;;;9.73;2.33;;;;;;;16.94;51.52;98140.50;4987047;28;20192;-81
2023/10/11 09:03:39;;;;;;;7.57;2.53;;;;;;;16.46;53.49;98127.38;4987603;28;20193;-82
2023/10/11 09:06:20;;;;;;;6.80;3.70;;;;;;;16.55;52.85;98121.66;4987555;28;20359;-82
2023/10/11 09:08:47;;;;;;;5.53;1.80;;;;;;;16.34;53.50;98135.84;4987216;28;20259;-81
2023/10/11 09:11:31;;;;;;;4.93;1.83;;;;;;;16.35;53.47;98136.66;4988097;28;20200;-84
2023/10/11 09:14:22;;;;;;;4.57;1.80;;;;;;;16.54;53.59;98137.44;4988506;28;20735;-84
2023/10/11 09:16:52;;;;;;;3.67;1.87;;;;;;;16.47;54.10;98138.63;4987199;28;20192;-83
2023/10/11 09:19:20;;;;;;;6.77;1.90;;;;;;;16.73;53.69;98138.19;4988611;28;20248;-83
2023/10/11 09:22:18;;;;;;;7.63;2.10;;;;;;;16.55;53.72;98128.69;4987087;28;20243;-82
2023/10/11 09:24:45;;;;;;;8.77;2.30;;;;;;;16.77;53.27;98134.47;4988654;28;20397;-78
2023/10/11 09:27:22;;;;;;;6.57;2.90;;;;;;;16.86;52.50;98136.59;4988376;28;20192;-82
2023/10/11 09:29:51;;;;;;;9.57;3.80;;;;;;;16.88;52.42;98126.88;4987109;28;20291;-79
2023/10/11 09:32:27;;;;;;;8.77;3.40;;;;;;;17.04;52.19;98138.25;4988378;28;20222;-80
2023/10/11 09:34:56;;;;;;;6.93;3.40;;;;;;;16.32;54.38;98119.38;4986706;28;20231;-80
2023/10/11 09:37:24;;;;;;;6.00;2.87;;;;;;;16.57;53.50;98132.06;4988083;28;20582;-81
2023/10/11 09:40:01;;;;;;;6.83;2.27;;;;;;;16.68;52.88;98116.63;4986643;28;20681;-85
2023/10/11 09:42:29;;;;;;;4.00;1.83;;;;;;;16.68;53.00;98112.25;4988210;28;20222;-84
2023/10/11 09:44:59;;;;;;;4.20;1.80;;;;;;;17.03;52.02;98133.91;4988489;28;20300;-84
2023/10/11 09:47:31;;;;;;;6.50;2.57;;;;;;;17.14;52.90;98126.34;4988388;28;20197;-83
2023/10/11 09:50:00;;;;;;;11.30;2.43;;;;;;;17.45;52.38;98131.59;4988434;28;20195;-84
2023/10/11 09:52:33;;;;;;;9.37;2.40;;;;;;;17.68;51.59;98130.31;4987243;28;20222;-83
2023/10/11 09:55:09;;;;;;;4.53;1.93;;;;;;;17.91;50.63;98127.19;4988653;28;20658;-84
2023/10/11 09:58:11;;;;;;;5.47;2.30;;;;;;;17.79;50.92;98120.91;4989280;28;20263;-80
2023/10/11 10:01:05;;;;;;;5.47;2.00;;;;;;;17.53;50.73;98118.94;4990109;28;20260;-82
2023/10/11 10:03:38;;;;;;;9.67;2.13;;;;;;;17.33;51.02;98108.66;4988231;28;20264;-82
2023/10/11 10:06:18;;;;;;;5.03;1.70;;;;;;;17.18;51.18;98119.16;4987766;28;20232;-83
2023/10/11 10:09:16;;;;;;;8.07;3.03;;;;;;;17.35;52.18;98121.69;4989637;28;20185;-84
2023/10/11 10:12:20;;;;;;;6.40;2.00;;;;;;;17.53;51.70;98107.59;4988912;28;20205;-73
2023/10/11 10:15:13;;;;;;;6.60;1.90;;;;;;;17.67;50.78;98108.50;4991018;28;20225;-85
2023/10/11 10:18:03;;;;;;;3.00;1.60;;;;;;;17.50;50.71;98099.91;4991511;28;20206;-85
2023/10/11 10:20:33;;;;;;;5.87;2.57;;;;;;;17.61;51.34;98095.75;4989172;28;20270;-85
2023/10/11 10:23:21;;;;;;;5.80;2.87;;;;;;;17.61;51.05;98090.53;4988290;28;20192;-82
2023/10/11 10:26:13;;;;;;;3.33;2.03;;;;;;;17.73;50.61;98095.06;4986209;28;20215;-79
2023/10/11 10:28:41;;;;;;;5.67;2.37;;;;;;;17.85;50.32;98085.63;4985589;28;20196;-75
2023/10/11 10:31:10;;;;;;;5.67;2.50;;;;;;;17.83;50.89;98087.50;4986900;28;20203;-83
2023/10/11 10:33:39;;;;;;;3.97;2.80;;;;;;;17.72;51.49;98093.34;4987725;28;20210;-80
2023/10/11 10:36:21;;;;;;;6.57;1.83;;;;;;;17.62;51.02;98091.38;4985939;28;20373;-78
2023/10/11 10:38:58;;;;;;;15.30;2.80;;;;;;;17.88;51.19;98091.56;4987686;28;20264;-77
2023/10/11 10:41:31;;;;;;;6.77;2.83;;;;;;;18.07;50.88;98085.22;4987179;28;20187;-72
2023/10/11 10:44:04;;;;;;;6.73;2.40;;;;;;;18.17;50.03;98084.59;4987013;28;20594;-76
2023/10/11 10:46:49;;;;;;;5.67;1.60;;;;;;;18.21;50.58;98069.53;4986706;28;20228;-72
2023/10/11 10:49:37;;;;;;;7.70;2.90;;;;;;;18.52;49.49;98072.00;4986966;28;20672;-71
2023/10/11 10:52:18;;;;;;;5.83;2.20;;;;;;;18.60;48.71;98070.63;4985732;28;20209;-82
2023/10/11 10:55:02;;;;;;;6.53;2.20;;;;;;;18.17;49.65;98065.41;4985483;28;20308;-72
2023/10/11 10:57:41;;;;;;;6.93;2.40;;;;;;;18.13;49.76;98063.88;4986785;28;20220;-78
2023/10/11 11:00:27;;;;;;;4.93;1.80;;;;;;;18.15;49.97;98057.63;4986897;28;20232;-80
2023/10/11 11:03:18;;;;;;;11.20;2.70;;;;;;;18.28;50.20;98053.31;4991278;28;20198;-81
2023/10/11 11:05:59;;;;;;;8.63;2.07;;;;;;;18.63;50.11;98051.19;4987158;28;20771;-82
2023/10/11 11:08:53;;;;;;;3.80;2.13;;;;;;;18.70;49.90;98047.25;4986858;28;20199;-72
2023/10/11 11:11:48;;;;;;;5.40;2.20;;;;;;;19.02;49.07;98045.25;4986892;28;20199;-81
2023/10/11 11:15:08;;;;;;;6.87;2.30;;;;;;;19.23;48.84;98044.72;4968807;28;20320;-82
2023/10/11 11:25:57;;;;;;;4.53;2.10;;;;;;;19.03;49.03;98024.16;4945043;28;20196;-78
2023/10/11 11:28:43;;;;;;;6.40;2.77;;;;;;;18.85;49.58;98025.31;4945510;28;20719;-74
2023/10/11 11:34:26;;;;;;;4.70;2.50;;;;;;;19.06;49.08;98018.69;4945434;28;20188;-71
2023/10/11 11:41:04;;;;;;;5.10;2.07;;;;;;;19.16;48.15;98013.69;4921729;28;20282;-71
2023/10/11 11:44:43;;;;;;;7.03;1.83;;;;;;;18.99;49.20;98006.91;4926175;29;20208;-75
2023/10/11 11:47:10;;;;;;;8.53;2.57;;;;;;;18.93;48.73;98009.91;4976781;28;20686;-69
2023/10/11 11:49:38;;;;;;;5.33;2.10;;;;;;;18.98;48.78;98010.44;4984877;28;20659;-76
2023/10/11 11:52:05;;;;;;;5.53;2.10;;;;;;;18.24;50.66;97999.38;4986158;28;20198;-73
2023/10/11 11:54:32;;;;;;;4.50;1.63;;;;;;;18.38;50.78;97991.50;4986129;28;20222;-76
2023/10/11 11:57:07;;;;;;;3.80;2.40;;;;;;;18.61;50.90;98001.44;4987337;28;20191;-70
2023/10/11 11:59:35;;;;;;;2.40;1.80;;;;;;;18.25;50.56;97997.59;4996577;28;20619;-72
2023/10/11 12:02:06;;;;;;;5.37;2.30;;;;;;;18.56;49.92;98000.06;4997102;28;20582;-72
2023/10/11 12:04:35;;;;;;;5.27;2.03;;;;;;;18.17;50.40;97984.13;4997068;28;20289;-73
2023/10/11 12:07:05;;;;;;;3.73;2.40;;;;;;;18.62;50.40;98000.53;5001780;28;20186;-76
2023/10/11 12:09:34;;;;;;;7.17;2.17;;;;;;;18.77;49.74;97982.97;5005938;28;20208;-73
2023/10/11 12:12:25;;;;;;;6.43;2.27;;;;;;;18.64;49.70;97992.53;5004305;28;20193;-79
2023/10/11 12:14:53;;;;;;;7.23;3.17;;;;;;;18.83;49.77;97985.19;5005938;28;20317;-78
2023/10/11 12:17:21;;;;;;;6.80;2.87;;;;;;;19.05;49.39;97980.25;5006011;28;20195;-74
2023/10/11 12:19:53;;;;;;;7.53;4.00;;;;;;;19.09;49.24;97981.72;5005909;28;20201;-82
2023/10/11 12:23:07;;;;;;;7.87;2.00;;;;;;;18.81;49.40;97979.22;5005743;28;20214;-79
2023/10/11 12:25:13;;;;;;;9.07;2.90;;;;;;;18.84;49.53;97968.50;5003108;28;20564;-83
2023/10/11 12:27:40;;;;;;;7.30;2.40;;;;;;;19.09;49.03;97984.34;5004406;28;20216;-81
2023/10/11 12:30:19;;;;;;;3.57;1.93;;;;;;;19.04;49.05;97981.19;5004599;28;20745;-83
2023/10/11 12:32:47;;;;;;;6.77;2.20;;;;;;;19.20;48.76;97976.63;5010112;28;20685;-81
2023/10/11 12:35:15;;;;;;;7.10;2.10;;;;;;;19.35;48.46;97970.38;5009472;28;20230;-79
2023/10/11 12:37:43;;;;;;;6.50;2.20;;;;;;;19.33;47.72;97967.03;5009062;28;20199;-83
2023/10/11 12:40:13;;;;;;;4.70;2.20;;;;;;;19.28;48.39;97970.88;5006815;28;20229;-85
2023/10/11 12:42:46;;;;;;;9.13;2.77;;;;;;;19.20;48.43;97968.75;5001476;28;20728;-84
2023/10/11 12:45:16;;;;;;;5.20;2.50;;;;;;;19.34;49.00;97968.72;4998987;28;20465;-83
2023/10/11 12:47:45;;;;;;;3.77;2.60;;;;;;;19.25;48.77;97964.03;4989760;28;20191;-83
2023/10/11 12:50:14;;;;;;;7.50;2.57;;;;;;;19.43;48.93;97962.84;4989649;28;20195;-85
2023/10/11 12:52:41;;;;;;;4.57;2.50;;;;;;;19.43;48.57;97968.09;4987850;28;20192;-82
2023/10/11 12:55:12;;;;;;;5.43;2.53;;;;;;;19.52;48.14;97945.63;4988934;28;20243;-80
2023/10/11 12:57:41;;;;;;;7.67;3.00;;;;;;;19.66;48.38;97952.59;4989030;28;20612;-84
2023/10/11 13:03:13;;;;;;;7.80;3.10;;;;;;;19.75;48.37;97942.28;4988855;28;20188;-77
2023/10/11 13:05:43;;;;;;;5.17;2.93;;;;;;;19.74;47.99;97956.38;4987693;28;20215;-82
2023/10/11 13:08:12;;;;;;;6.37;2.60;;;;;;;19.63;48.08;97958.03;4989315;28;20184;-73
2023/10/11 13:10:49;;;;;;;5.30;2.43;;;;;;;19.42;48.29;97953.28;4988768;28;20196;-72
2023/10/11 13:13:16;;;;;;;6.77;2.17;;;;;;;18.93;49.55;97951.31;4988786;28;20701;-80
2023/10/11 13:15:59;;;;;;;4.37;2.10;;;;;;;19.21;49.56;97952.03;4988705;28;20722;-72
2023/10/11 13:18:37;;;;;;;7.47;2.30;;;;;;;19.48;48.88;97938.88;4988677;28;20214;-76
2023/10/11 13:21:11;;;;;;;4.70;2.90;;;;;;;19.67;48.47;97938.50;4988807;28;20192;-73
2023/10/11 13:23:43;;;;;;;4.43;2.37;;;;;;;19.64;48.19;97931.66;4988532;28;20194;-76
2023/10/11 13:26:18;;;;;;;5.63;2.20;;;;;;;19.62;48.89;97940.63;4988726;28;20267;-72
2023/10/11 13:28:53;;;;;;;4.83;2.30;;;;;;;19.60;48.20;97932.00;4988617;28;20659;-69
2023/10/11 13:31:24;;;;;;;4.70;2.70;;;;;;;19.57;48.74;97924.28;4987298;28;20199;-74
2023/10/11 13:33:53;;;;;;;7.33;2.50;;;;;;;19.46;48.48;97920.63;4988197;28;20200;-78